sensor_id;sensor_type;location;lat;lon;timestamp;P1;durP1;ratioP1;P2;durP2;ratioP2
61344;SDS011;47216;42.656;23.232;2023-04-25T00:00:02;1.93;;;1.73;;
61344;SDS011;47216;42.656;23.232;2023-04-25T00:02:32;3.93;;;2.30;;
61344;SDS011;47216;42.656;23.232;2023-04-25T00:05:01;6.77;;;2.47;;
61344;SDS011;47216;42.656;23.232;2023-04-25T00:07:28;6.53;;;2.30;;
61344;SDS011;47216;42.656;23.232;2023-04-25T00:09:56;6.03;;;2.40;;
61344;SDS011;47216;42.656;23.232;2023-04-25T00:12:23;2.63;;;2.20;;
61344;SDS011;47216;42.656;23.232;2023-04-25T00:14:50;5.00;;;2.70;;
61344;SDS011;47216;42.656;23.232;2023-04-25T00:17:17;9.67;;;2.77;;
61344;SDS011;47216;42.656;23.232;2023-04-25T00:19:45;3.13;;;2.20;;
61344;SDS011;47216;42.656;23.232;2023-04-25T00:22:13;2.53;;;2.10;;
61344;SDS011;47216;42.656;23.232;2023-04-25T00:24:40;4.60;;;2.60;;
61344;SDS011;47216;42.656;23.232;2023-04-25T00:27:07;4.57;;;2.33;;
61344;SDS011;47216;42.656;23.232;2023-04-25T00:29:34;3.53;;;2.33;;
61344;SDS011;47216;42.656;23.232;2023-04-25T00:32:01;4.63;;;2.23;;
61344;SDS011;47216;42.656;23.232;2023-04-25T00:34:28;2.83;;;1.47;;
61344;SDS011;47216;42.656;23.232;2023-04-25T00:36:55;2.50;;;1.80;;
61344;SDS011;47216;42.656;23.232;2023-04-25T00:39:23;3.27;;;1.63;;
61344;SDS011;47216;42.656;23.232;2023-04-25T00:41:50;1.53;;;1.43;;
61344;SDS011;47216;42.656;23.232;2023-04-25T00:44:19;4.13;;;1.50;;
61344;SDS011;47216;42.656;23.232;2023-04-25T00:46:47;1.43;;;1.33;;
61344;SDS011;47216;42.656;23.232;2023-04-25T00:49:14;7.70;;;1.60;;
61344;SDS011;47216;42.656;23.232;2023-04-25T00:51:42;2.53;;;1.50;;
61344;SDS011;47216;42.656;23.232;2023-04-25T00:54:10;1.53;;;1.40;;
61344;SDS011;47216;42.656;23.232;2023-04-25T00:56:39;1.40;;;1.30;;
61344;SDS011;47216;42.656;23.232;2023-04-25T00:59:06;3.30;;;2.60;;
61344;SDS011;47216;42.656;23.232;2023-04-25T01:01:34;1.90;;;1.80;;
61344;SDS011;47216;42.656;23.232;2023-04-25T01:04:02;3.23;;;1.60;;
61344;SDS011;47216;42.656;23.232;2023-04-25T01:06:29;1.97;;;1.47;;
61344;SDS011;47216;42.656;23.232;2023-04-25T01:08:57;1.57;;;1.20;;
61344;SDS011;47216;42.656;23.232;2023-04-25T01:11:24;2.50;;;1.20;;
61344;SDS011;47216;42.656;23.232;2023-04-25T01:13:52;1.13;;;1.07;;
61344;SDS011;47216;42.656;23.232;2023-04-25T01:16:19;1.30;;;1.20;;
61344;SDS011;47216;42.656;23.232;2023-04-25T01:18:48;1.40;;;1.20;;
61344;SDS011;47216;42.656;23.232;2023-04-25T01:21:17;1.20;;;1.10;;
61344;SDS011;47216;42.656;23.232;2023-04-25T01:23:44;1.50;;;1.20;;
61344;SDS011;47216;42.656;23.232;2023-04-25T01:26:11;1.20;;;1.10;;
61344;SDS011;47216;42.656;23.232;2023-04-25T01:28:39;6.80;;;5.60;;
61344;SDS011;47216;42.656;23.232;2023-04-25T01:31:06;4.17;;;2.30;;
61344;SDS011;47216;42.656;23.232;2023-04-25T01:33:33;2.97;;;2.77;;
61344;SDS011;47216;42.656;23.232;2023-04-25T01:36:00;3.77;;;2.00;;
61344;SDS011;47216;42.656;23.232;2023-04-25T01:38:29;2.87;;;2.10;;
61344;SDS011;47216;42.656;23.232;2023-04-25T01:40:56;2.40;;;1.80;;
61344;SDS011;47216;42.656;23.232;2023-04-25T01:43:23;2.80;;;2.60;;
61344;SDS011;47216;42.656;23.232;2023-04-25T01:45:51;1.67;;;1.57;;
61344;SDS011;47216;42.656;23.232;2023-04-25T01:48:18;2.23;;;1.80;;
61344;SDS011;47216;42.656;23.232;2023-04-25T01:50:45;3.70;;;2.10;;
61344;SDS011;47216;42.656;23.232;2023-04-25T01:53:12;3.47;;;3.17;;
61344;SDS011;47216;42.656;23.232;2023-04-25T01:55:42;2.73;;;1.97;;
61344;SDS011;47216;42.656;23.232;2023-04-25T01:58:09;3.70;;;1.87;;
61344;SDS011;47216;42.656;23.232;2023-04-25T02:00:38;2.37;;;1.83;;
61344;SDS011;47216;42.656;23.232;2023-04-25T02:03:06;5.23;;;2.00;;
61344;SDS011;47216;42.656;23.232;2023-04-25T02:05:34;7.07;;;2.10;;
61344;SDS011;47216;42.656;23.232;2023-04-25T02:08:02;2.37;;;2.00;;
61344;SDS011;47216;42.656;23.232;2023-04-25T02:10:29;3.70;;;2.70;;
61344;SDS011;47216;42.656;23.232;2023-04-25T02:12:58;2.60;;;2.40;;
61344;SDS011;47216;42.656;23.232;2023-04-25T02:15:25;4.60;;;2.33;;
61344;SDS011;47216;42.656;23.232;2023-04-25T02:17:52;5.07;;;2.30;;
61344;SDS011;47216;42.656;23.232;2023-04-25T02:20:20;2.93;;;2.50;;
61344;SDS011;47216;42.656;23.232;2023-04-25T02:22:47;2.33;;;2.13;;
61344;SDS011;47216;42.656;23.232;2023-04-25T02:25:14;2.83;;;2.43;;
61344;SDS011;47216;42.656;23.232;2023-04-25T02:27:41;2.83;;;2.37;;
61344;SDS011;47216;42.656;23.232;2023-04-25T02:30:09;7.07;;;3.17;;
61344;SDS011;47216;42.656;23.232;2023-04-25T02:32:37;3.93;;;3.30;;
61344;SDS011;47216;42.656;23.232;2023-04-25T02:35:04;3.67;;;2.87;;
61344;SDS011;47216;42.656;23.232;2023-04-25T02:37:31;3.70;;;3.00;;
61344;SDS011;47216;42.656;23.232;2023-04-25T02:39:59;3.50;;;2.90;;
61344;SDS011;47216;42.656;23.232;2023-04-25T02:42:27;4.63;;;3.13;;
61344;SDS011;47216;42.656;23.232;2023-04-25T02:44:54;3.57;;;3.27;;
61344;SDS011;47216;42.656;23.232;2023-04-25T02:47:23;4.13;;;2.97;;
61344;SDS011;47216;42.656;23.232;2023-04-25T02:49:50;4.27;;;2.63;;
61344;SDS011;47216;42.656;23.232;2023-04-25T02:52:16;4.90;;;2.57;;
61344;SDS011;47216;42.656;23.232;2023-04-25T02:54:43;4.23;;;3.83;;
61344;SDS011;47216;42.656;23.232;2023-04-25T02:57:10;3.47;;;3.17;;
61344;SDS011;47216;42.656;23.232;2023-04-25T02:59:37;9.40;;;3.27;;
61344;SDS011;47216;42.656;23.232;2023-04-25T03:02:04;4.40;;;3.60;;
61344;SDS011;47216;42.656;23.232;2023-04-25T03:04:32;4.07;;;3.67;;
61344;SDS011;47216;42.656;23.232;2023-04-25T03:06:59;4.63;;;3.80;;
61344;SDS011;47216;42.656;23.232;2023-04-25T03:09:26;3.77;;;3.20;;
61344;SDS011;47216;42.656;23.232;2023-04-25T03:11:53;3.87;;;3.57;;
61344;SDS011;47216;42.656;23.232;2023-04-25T03:14:20;4.97;;;3.37;;
61344;SDS011;47216;42.656;23.232;2023-04-25T03:16:46;3.57;;;3.20;;
61344;SDS011;47216;42.656;23.232;2023-04-25T03:19:13;5.73;;;4.00;;
61344;SDS011;47216;42.656;23.232;2023-04-25T03:21:43;4.40;;;3.60;;
61344;SDS011;47216;42.656;23.232;2023-04-25T03:24:10;4.37;;;3.97;;
61344;SDS011;47216;42.656;23.232;2023-04-25T03:26:37;7.20;;;3.87;;
61344;SDS011;47216;42.656;23.232;2023-04-25T03:29:04;4.80;;;3.80;;
61344;SDS011;47216;42.656;23.232;2023-04-25T03:31:31;4.53;;;3.70;;
61344;SDS011;47216;42.656;23.232;2023-04-25T03:33:58;4.50;;;3.93;;
61344;SDS011;47216;42.656;23.232;2023-04-25T03:36:25;4.43;;;3.87;;
61344;SDS011;47216;42.656;23.232;2023-04-25T03:38:53;4.17;;;3.73;;
61344;SDS011;47216;42.656;23.232;2023-04-25T03:41:20;4.63;;;3.87;;
61344;SDS011;47216;42.656;23.232;2023-04-25T03:43:47;4.43;;;3.97;;
61344;SDS011;47216;42.656;23.232;2023-04-25T03:46:14;4.40;;;3.70;;
61344;SDS011;47216;42.656;23.232;2023-04-25T03:48:40;5.03;;;4.23;;
61344;SDS011;47216;42.656;23.232;2023-04-25T03:51:07;4.57;;;4.13;;
61344;SDS011;47216;42.656;23.232;2023-04-25T03:53:34;5.33;;;3.30;;
61344;SDS011;47216;42.656;23.232;2023-04-25T03:56:02;3.97;;;3.63;;
61344;SDS011;47216;42.656;23.232;2023-04-25T03:58:29;6.53;;;3.50;;
61344;SDS011;47216;42.656;23.232;2023-04-25T04:00:56;4.10;;;3.23;;
61344;SDS011;47216;42.656;23.232;2023-04-25T04:03:23;5.10;;;3.07;;
61344;SDS011;47216;42.656;23.232;2023-04-25T04:05:50;4.30;;;3.40;;
61344;SDS011;47216;42.656;23.232;2023-04-25T04:08:17;7.80;;;3.40;;
61344;SDS011;47216;42.656;23.232;2023-04-25T04:10:44;3.57;;;3.13;;
61344;SDS011;47216;42.656;23.232;2023-04-25T04:13:12;4.27;;;2.97;;
61344;SDS011;47216;42.656;23.232;2023-04-25T04:15:39;3.90;;;3.30;;
61344;SDS011;47216;42.656;23.232;2023-04-25T04:18:06;4.67;;;3.63;;
61344;SDS011;47216;42.656;23.232;2023-04-25T04:20:33;5.03;;;3.43;;
61344;SDS011;47216;42.656;23.232;2023-04-25T04:22:59;3.33;;;3.03;;
61344;SDS011;47216;42.656;23.232;2023-04-25T04:25:26;5.37;;;3.40;;
61344;SDS011;47216;42.656;23.232;2023-04-25T04:27:53;3.43;;;2.73;;
61344;SDS011;47216;42.656;23.232;2023-04-25T04:30:22;7.17;;;3.50;;
61344;SDS011;47216;42.656;23.232;2023-04-25T04:32:50;5.20;;;3.40;;
61344;SDS011;47216;42.656;23.232;2023-04-25T04:35:17;5.80;;;3.10;;
61344;SDS011;47216;42.656;23.232;2023-04-25T04:37:44;3.67;;;3.17;;
61344;SDS011;47216;42.656;23.232;2023-04-25T04:40:11;8.10;;;3.20;;
61344;SDS011;47216;42.656;23.232;2023-04-25T04:42:40;5.10;;;3.00;;
61344;SDS011;47216;42.656;23.232;2023-04-25T04:45:07;3.67;;;3.20;;
61344;SDS011;47216;42.656;23.232;2023-04-25T04:47:37;6.10;;;3.37;;
61344;SDS011;47216;42.656;23.232;2023-04-25T04:50:05;3.43;;;3.10;;
61344;SDS011;47216;42.656;23.232;2023-04-25T04:52:33;3.00;;;2.67;;
61344;SDS011;47216;42.656;23.232;2023-04-25T04:55:01;4.80;;;3.10;;
61344;SDS011;47216;42.656;23.232;2023-04-25T04:57:28;4.47;;;2.90;;
61344;SDS011;47216;42.656;23.232;2023-04-25T04:59:56;4.07;;;2.80;;
61344;SDS011;47216;42.656;23.232;2023-04-25T05:02:22;4.13;;;2.93;;
61344;SDS011;47216;42.656;23.232;2023-04-25T05:04:51;2.60;;;2.37;;
61344;SDS011;47216;42.656;23.232;2023-04-25T05:07:17;4.43;;;3.10;;
61344;SDS011;47216;42.656;23.232;2023-04-25T05:09:44;4.80;;;3.60;;
61344;SDS011;47216;42.656;23.232;2023-04-25T05:12:11;2.50;;;2.30;;
61344;SDS011;47216;42.656;23.232;2023-04-25T05:14:38;3.27;;;2.13;;
61344;SDS011;47216;42.656;23.232;2023-04-25T05:17:05;2.77;;;2.37;;
61344;SDS011;47216;42.656;23.232;2023-04-25T05:19:33;2.30;;;2.00;;
61344;SDS011;47216;42.656;23.232;2023-04-25T05:22:01;3.03;;;2.40;;
61344;SDS011;47216;42.656;23.232;2023-04-25T05:24:28;2.77;;;2.07;;
61344;SDS011;47216;42.656;23.232;2023-04-25T05:26:55;2.07;;;1.90;;
61344;SDS011;47216;42.656;23.232;2023-04-25T05:29:22;3.00;;;2.30;;
61344;SDS011;47216;42.656;23.232;2023-04-25T05:31:49;3.27;;;2.97;;
61344;SDS011;47216;42.656;23.232;2023-04-25T05:34:16;6.17;;;5.57;;
61344;SDS011;47216;42.656;23.232;2023-04-25T05:36:42;7.07;;;5.67;;
61344;SDS011;47216;42.656;23.232;2023-04-25T05:39:11;6.73;;;5.40;;
61344;SDS011;47216;42.656;23.232;2023-04-25T05:41:38;6.97;;;6.13;;
61344;SDS011;47216;42.656;23.232;2023-04-25T05:44:05;6.97;;;5.60;;
61344;SDS011;47216;42.656;23.232;2023-04-25T05:46:32;7.17;;;6.17;;
61344;SDS011;47216;42.656;23.232;2023-04-25T05:48:59;7.80;;;5.90;;
61344;SDS011;47216;42.656;23.232;2023-04-25T05:51:25;7.37;;;5.60;;
61344;SDS011;47216;42.656;23.232;2023-04-25T05:53:52;6.83;;;5.57;;
61344;SDS011;47216;42.656;23.232;2023-04-25T05:56:21;7.30;;;5.97;;
61344;SDS011;47216;42.656;23.232;2023-04-25T05:58:48;6.47;;;5.70;;
61344;SDS011;47216;42.656;23.232;2023-04-25T06:01:15;6.43;;;5.17;;
61344;SDS011;47216;42.656;23.232;2023-04-25T06:03:42;8.13;;;5.87;;
61344;SDS011;47216;42.656;23.232;2023-04-25T06:06:09;7.57;;;6.60;;
61344;SDS011;47216;42.656;23.232;2023-04-25T06:08:35;7.70;;;6.37;;
61344;SDS011;47216;42.656;23.232;2023-04-25T06:11:03;7.47;;;6.20;;
61344;SDS011;47216;42.656;23.232;2023-04-25T06:13:32;9.10;;;6.83;;
61344;SDS011;47216;42.656;23.232;2023-04-25T06:15:59;7.70;;;6.07;;
61344;SDS011;47216;42.656;23.232;2023-04-25T06:18:26;8.97;;;6.80;;
61344;SDS011;47216;42.656;23.232;2023-04-25T06:20:53;9.73;;;6.87;;
61344;SDS011;47216;42.656;23.232;2023-04-25T06:23:20;10.67;;;7.37;;
61344;SDS011;47216;42.656;23.232;2023-04-25T06:25:46;11.37;;;8.30;;
61344;SDS011;47216;42.656;23.232;2023-04-25T06:28:13;8.47;;;7.10;;
61344;SDS011;47216;42.656;23.232;2023-04-25T06:30:41;9.97;;;7.87;;
61344;SDS011;47216;42.656;23.232;2023-04-25T06:33:08;9.70;;;8.00;;
61344;SDS011;47216;42.656;23.232;2023-04-25T06:35:35;9.73;;;7.73;;
61344;SDS011;47216;42.656;23.232;2023-04-25T06:38:02;10.47;;;8.53;;
61344;SDS011;47216;42.656;23.232;2023-04-25T06:40:29;12.33;;;9.00;;
61344;SDS011;47216;42.656;23.232;2023-04-25T06:42:56;11.00;;;8.07;;
61344;SDS011;47216;42.656;23.232;2023-04-25T06:45:22;13.60;;;8.77;;
61344;SDS011;47216;42.656;23.232;2023-04-25T06:47:51;9.90;;;7.93;;
61344;SDS011;47216;42.656;23.232;2023-04-25T06:50:18;9.97;;;8.10;;
61344;SDS011;47216;42.656;23.232;2023-04-25T06:52:44;13.23;;;8.23;;
61344;SDS011;47216;42.656;23.232;2023-04-25T06:55:11;11.30;;;7.70;;
61344;SDS011;47216;42.656;23.232;2023-04-25T06:57:38;10.87;;;7.90;;
61344;SDS011;47216;42.656;23.232;2023-04-25T07:00:05;8.60;;;7.10;;
61344;SDS011;47216;42.656;23.232;2023-04-25T07:02:34;10.30;;;7.13;;
61344;SDS011;47216;42.656;23.232;2023-04-25T07:05:02;9.70;;;5.67;;
61344;SDS011;47216;42.656;23.232;2023-04-25T07:07:30;6.20;;;5.60;;
61344;SDS011;47216;42.656;23.232;2023-04-25T07:09:57;4.67;;;3.73;;
61344;SDS011;47216;42.656;23.232;2023-04-25T07:12:24;2.73;;;2.30;;
61344;SDS011;47216;42.656;23.232;2023-04-25T07:14:51;3.27;;;2.23;;
61344;SDS011;47216;42.656;23.232;2023-04-25T07:17:18;4.10;;;2.03;;
61344;SDS011;47216;42.656;23.232;2023-04-25T07:19:44;3.57;;;2.10;;
61344;SDS011;47216;42.656;23.232;2023-04-25T07:22:12;4.83;;;1.87;;
61344;SDS011;47216;42.656;23.232;2023-04-25T07:24:39;2.10;;;1.90;;
61344;SDS011;47216;42.656;23.232;2023-04-25T07:27:06;3.00;;;1.90;;
61344;SDS011;47216;42.656;23.232;2023-04-25T07:29:33;3.33;;;2.00;;
61344;SDS011;47216;42.656;23.232;2023-04-25T07:32:02;2.03;;;1.90;;
61344;SDS011;47216;42.656;23.232;2023-04-25T07:34:29;1.80;;;1.70;;
61344;SDS011;47216;42.656;23.232;2023-04-25T07:36:57;2.80;;;1.80;;
61344;SDS011;47216;42.656;23.232;2023-04-25T07:39:25;1.93;;;1.80;;
61344;SDS011;47216;42.656;23.232;2023-04-25T07:41:52;2.73;;;1.60;;
61344;SDS011;47216;42.656;23.232;2023-04-25T07:44:19;3.63;;;1.60;;
61344;SDS011;47216;42.656;23.232;2023-04-25T07:46:47;2.60;;;1.60;;
61344;SDS011;47216;42.656;23.232;2023-04-25T07:49:14;1.40;;;1.23;;
61344;SDS011;47216;42.656;23.232;2023-04-25T07:51:41;2.30;;;1.60;;
61344;SDS011;47216;42.656;23.232;2023-04-25T07:54:08;1.53;;;1.43;;
61344;SDS011;47216;42.656;23.232;2023-04-25T07:56:36;2.17;;;1.80;;
61344;SDS011;47216;42.656;23.232;2023-04-25T07:59:03;2.17;;;1.57;;
61344;SDS011;47216;42.656;23.232;2023-04-25T08:01:30;2.27;;;1.30;;
61344;SDS011;47216;42.656;23.232;2023-04-25T08:03:57;1.70;;;1.33;;
61344;SDS011;47216;42.656;23.232;2023-04-25T08:06:24;2.93;;;1.60;;
61344;SDS011;47216;42.656;23.232;2023-04-25T08:08:50;1.27;;;1.17;;
61344;SDS011;47216;42.656;23.232;2023-04-25T08:11:17;1.80;;;1.20;;
61344;SDS011;47216;42.656;23.232;2023-04-25T08:13:46;1.53;;;1.43;;
61344;SDS011;47216;42.656;23.232;2023-04-25T08:16:12;1.70;;;1.40;;
61344;SDS011;47216;42.656;23.232;2023-04-25T08:18:39;2.90;;;1.47;;
61344;SDS011;47216;42.656;23.232;2023-04-25T08:21:06;2.17;;;1.40;;
61344;SDS011;47216;42.656;23.232;2023-04-25T08:23:36;2.77;;;1.30;;
61344;SDS011;47216;42.656;23.232;2023-04-25T08:26:03;1.77;;;1.30;;
61344;SDS011;47216;42.656;23.232;2023-04-25T08:28:30;1.50;;;1.40;;
61344;SDS011;47216;42.656;23.232;2023-04-25T08:30:59;2.03;;;1.43;;
61344;SDS011;47216;42.656;23.232;2023-04-25T08:33:26;2.10;;;1.40;;
61344;SDS011;47216;42.656;23.232;2023-04-25T08:35:52;2.13;;;1.67;;
61344;SDS011;47216;42.656;23.232;2023-04-25T08:38:19;1.60;;;1.50;;
61344;SDS011;47216;42.656;23.232;2023-04-25T08:40:48;3.13;;;1.60;;
61344;SDS011;47216;42.656;23.232;2023-04-25T08:43:17;2.63;;;1.30;;
61344;SDS011;47216;42.656;23.232;2023-04-25T08:45:45;1.67;;;1.23;;
61344;SDS011;47216;42.656;23.232;2023-04-25T08:48:15;1.60;;;1.10;;
61344;SDS011;47216;42.656;23.232;2023-04-25T08:50:44;1.70;;;1.10;;
61344;SDS011;47216;42.656;23.232;2023-04-25T08:53:16;2.50;;;1.40;;
61344;SDS011;47216;42.656;23.232;2023-04-25T08:55:45;1.20;;;1.10;;
61344;SDS011;47216;42.656;23.232;2023-04-25T08:58:12;2.03;;;1.00;;
61344;SDS011;47216;42.656;23.232;2023-04-25T09:00:40;1.20;;;1.10;;
61344;SDS011;47216;42.656;23.232;2023-04-25T09:03:07;2.03;;;1.13;;
61344;SDS011;47216;42.656;23.232;2023-04-25T09:05:35;1.67;;;1.10;;
61344;SDS011;47216;42.656;23.232;2023-04-25T09:08:03;1.03;;;0.93;;
61344;SDS011;47216;42.656;23.232;2023-04-25T09:10:30;1.73;;;1.00;;
61344;SDS011;47216;42.656;23.232;2023-04-25T09:13:01;1.63;;;1.10;;
61344;SDS011;47216;42.656;23.232;2023-04-25T09:15:29;1.00;;;0.80;;
61344;SDS011;47216;42.656;23.232;2023-04-25T09:17:56;1.70;;;1.00;;
61344;SDS011;47216;42.656;23.232;2023-04-25T09:20:24;2.30;;;0.80;;
61344;SDS011;47216;42.656;23.232;2023-04-25T09:23:02;1.30;;;1.10;;
61344;SDS011;47216;42.656;23.232;2023-04-25T09:25:33;1.00;;;0.80;;
61344;SDS011;47216;42.656;23.232;2023-04-25T09:28:04;2.43;;;0.90;;
61344;SDS011;47216;42.656;23.232;2023-04-25T09:30:33;0.97;;;0.87;;
61344;SDS011;47216;42.656;23.232;2023-04-25T09:33:04;1.17;;;0.70;;
61344;SDS011;47216;42.656;23.232;2023-04-25T09:35:35;3.47;;;0.80;;
61344;SDS011;47216;42.656;23.232;2023-04-25T09:38:10;2.33;;;0.97;;
61344;SDS011;47216;42.656;23.232;2023-04-25T09:40:41;1.70;;;0.93;;
61344;SDS011;47216;42.656;23.232;2023-04-25T09:43:09;1.37;;;1.00;;
61344;SDS011;47216;42.656;23.232;2023-04-25T09:45:43;0.63;;;0.63;;
61344;SDS011;47216;42.656;23.232;2023-04-25T09:48:15;1.67;;;0.90;;
61344;SDS011;47216;42.656;23.232;2023-04-25T09:50:43;1.00;;;0.80;;
61344;SDS011;47216;42.656;23.232;2023-04-25T09:53:12;2.07;;;0.77;;
61344;SDS011;47216;42.656;23.232;2023-04-25T09:55:38;0.80;;;0.80;;
61344;SDS011;47216;42.656;23.232;2023-04-25T09:58:07;0.90;;;0.60;;
61344;SDS011;47216;42.656;23.232;2023-04-25T10:00:36;1.77;;;0.70;;
61344;SDS011;47216;42.656;23.232;2023-04-25T10:03:05;1.07;;;0.70;;
61344;SDS011;47216;42.656;23.232;2023-04-25T10:05:32;0.70;;;0.70;;
61344;SDS011;47216;42.656;23.232;2023-04-25T10:08:02;4.17;;;0.80;;
61344;SDS011;47216;42.656;23.232;2023-04-25T10:10:31;0.80;;;0.70;;
61344;SDS011;47216;42.656;23.232;2023-04-25T10:13:02;1.43;;;0.80;;
61344;SDS011;47216;42.656;23.232;2023-04-25T10:15:32;0.80;;;0.80;;
61344;SDS011;47216;42.656;23.232;2023-04-25T10:18:00;1.87;;;0.90;;
61344;SDS011;47216;42.656;23.232;2023-04-25T10:20:28;0.77;;;0.77;;
61344;SDS011;47216;42.656;23.232;2023-04-25T10:22:57;1.60;;;0.60;;
61344;SDS011;47216;42.656;23.232;2023-04-25T10:25:32;0.90;;;0.67;;
61344;SDS011;47216;42.656;23.232;2023-04-25T10:28:00;0.67;;;0.67;;
61344;SDS011;47216;42.656;23.232;2023-04-25T10:30:28;2.50;;;0.80;;
61344;SDS011;47216;42.656;23.232;2023-04-25T10:32:55;1.57;;;0.60;;
61344;SDS011;47216;42.656;23.232;2023-04-25T10:35:24;1.33;;;0.90;;
61344;SDS011;47216;42.656;23.232;2023-04-25T10:38:02;3.57;;;0.90;;
61344;SDS011;47216;42.656;23.232;2023-04-25T10:40:32;3.20;;;0.70;;
61344;SDS011;47216;42.656;23.232;2023-04-25T10:46:01;1.10;;;0.70;;
61344;SDS011;47216;42.656;23.232;2023-04-25T10:48:28;0.90;;;0.63;;
61344;SDS011;47216;42.656;23.232;2023-04-25T10:53:38;0.67;;;0.50;;
61344;SDS011;47216;42.656;23.232;2023-04-25T10:56:10;0.53;;;0.50;;
61344;SDS011;47216;42.656;23.232;2023-04-25T10:58:41;0.83;;;0.60;;
61344;SDS011;47216;42.656;23.232;2023-04-25T11:01:08;2.27;;;0.70;;
61344;SDS011;47216;42.656;23.232;2023-04-25T11:03:38;0.77;;;0.60;;
61344;SDS011;47216;42.656;23.232;2023-04-25T11:06:06;0.93;;;0.73;;
61344;SDS011;47216;42.656;23.232;2023-04-25T11:08:47;2.03;;;0.90;;
61344;SDS011;47216;42.656;23.232;2023-04-25T11:11:16;4.07;;;1.10;;
61344;SDS011;47216;42.656;23.232;2023-04-25T11:13:47;1.13;;;1.00;;
61344;SDS011;47216;42.656;23.232;2023-04-25T11:16:15;2.10;;;0.90;;
61344;SDS011;47216;42.656;23.232;2023-04-25T11:18:42;2.90;;;0.70;;
61344;SDS011;47216;42.656;23.232;2023-04-25T11:21:09;5.33;;;1.00;;
61344;SDS011;47216;42.656;23.232;2023-04-25T11:23:36;2.60;;;1.10;;
61344;SDS011;47216;42.656;23.232;2023-04-25T11:26:04;1.10;;;0.90;;
61344;SDS011;47216;42.656;23.232;2023-04-25T11:28:32;2.10;;;1.10;;
61344;SDS011;47216;42.656;23.232;2023-04-25T11:30:59;2.73;;;0.90;;
61344;SDS011;47216;42.656;23.232;2023-04-25T11:33:25;0.80;;;0.70;;
61344;SDS011;47216;42.656;23.232;2023-04-25T11:35:53;0.70;;;0.60;;
61344;SDS011;47216;42.656;23.232;2023-04-25T11:38:21;0.67;;;0.67;;
61344;SDS011;47216;42.656;23.232;2023-04-25T11:40:49;0.67;;;0.60;;
61344;SDS011;47216;42.656;23.232;2023-04-25T11:43:17;0.97;;;0.70;;
61344;SDS011;47216;42.656;23.232;2023-04-25T11:45:48;1.53;;;0.67;;
61344;SDS011;47216;42.656;23.232;2023-04-25T11:48:15;2.20;;;0.90;;
61344;SDS011;47216;42.656;23.232;2023-04-25T11:50:42;1.13;;;0.77;;
61344;SDS011;47216;42.656;23.232;2023-04-25T11:53:09;2.00;;;0.90;;
61344;SDS011;47216;42.656;23.232;2023-04-25T11:55:36;1.23;;;0.60;;
61344;SDS011;47216;42.656;23.232;2023-04-25T11:58:05;0.73;;;0.70;;
61344;SDS011;47216;42.656;23.232;2023-04-25T12:00:32;0.80;;;0.70;;
61344;SDS011;47216;42.656;23.232;2023-04-25T12:03:00;0.97;;;0.70;;
61344;SDS011;47216;42.656;23.232;2023-04-25T12:05:28;0.83;;;0.53;;
61344;SDS011;47216;42.656;23.232;2023-04-25T12:07:58;1.47;;;0.60;;
61344;SDS011;47216;42.656;23.232;2023-04-25T12:10:36;1.77;;;0.40;;
61344;SDS011;47216;42.656;23.232;2023-04-25T12:13:17;0.40;;;0.40;;
61344;SDS011;47216;42.656;23.232;2023-04-25T12:15:45;1.67;;;1.00;;
61344;SDS011;47216;42.656;23.232;2023-04-25T12:18:13;0.50;;;0.50;;
61344;SDS011;47216;42.656;23.232;2023-04-25T12:20:41;1.67;;;1.47;;
61344;SDS011;47216;42.656;23.232;2023-04-25T12:23:08;1.07;;;0.70;;
61344;SDS011;47216;42.656;23.232;2023-04-25T12:25:36;1.20;;;0.60;;
61344;SDS011;47216;42.656;23.232;2023-04-25T12:28:10;1.83;;;0.80;;
61344;SDS011;47216;42.656;23.232;2023-04-25T12:30:56;0.83;;;0.60;;
61344;SDS011;47216;42.656;23.232;2023-04-25T12:33:27;1.20;;;0.90;;
61344;SDS011;47216;42.656;23.232;2023-04-25T12:35:55;1.47;;;1.13;;
61344;SDS011;47216;42.656;23.232;2023-04-25T12:38:23;2.07;;;1.87;;
61344;SDS011;47216;42.656;23.232;2023-04-25T12:40:50;0.80;;;0.57;;
61344;SDS011;47216;42.656;23.232;2023-04-25T12:43:18;1.27;;;1.03;;
61344;SDS011;47216;42.656;23.232;2023-04-25T12:45:46;2.47;;;0.77;;
61344;SDS011;47216;42.656;23.232;2023-04-25T12:48:14;0.80;;;0.63;;
61344;SDS011;47216;42.656;23.232;2023-04-25T12:50:42;3.47;;;1.80;;
61344;SDS011;47216;42.656;23.232;2023-04-25T12:53:09;1.93;;;1.00;;
61344;SDS011;47216;42.656;23.232;2023-04-25T12:55:36;1.07;;;0.97;;
61344;SDS011;47216;42.656;23.232;2023-04-25T12:58:03;2.77;;;1.73;;
61344;SDS011;47216;42.656;23.232;2023-04-25T13:00:30;1.80;;;1.20;;
61344;SDS011;47216;42.656;23.232;2023-04-25T13:02:57;2.93;;;1.43;;
61344;SDS011;47216;42.656;23.232;2023-04-25T13:05:25;0.90;;;0.90;;
61344;SDS011;47216;42.656;23.232;2023-04-25T13:07:54;4.80;;;1.00;;
61344;SDS011;47216;42.656;23.232;2023-04-25T13:10:21;2.03;;;1.37;;
61344;SDS011;47216;42.656;23.232;2023-04-25T13:12:48;4.23;;;1.50;;
61344;SDS011;47216;42.656;23.232;2023-04-25T13:15:15;3.33;;;1.40;;
61344;SDS011;47216;42.656;23.232;2023-04-25T13:17:43;3.17;;;1.20;;
61344;SDS011;47216;42.656;23.232;2023-04-25T13:20:10;1.70;;;1.27;;
61344;SDS011;47216;42.656;23.232;2023-04-25T13:22:37;3.03;;;1.20;;
61344;SDS011;47216;42.656;23.232;2023-04-25T13:25:07;1.87;;;1.30;;
61344;SDS011;47216;42.656;23.232;2023-04-25T13:27:34;4.23;;;1.27;;
61344;SDS011;47216;42.656;23.232;2023-04-25T13:30:06;2.37;;;1.43;;
61344;SDS011;47216;42.656;23.232;2023-04-25T13:32:34;7.17;;;6.50;;
61344;SDS011;47216;42.656;23.232;2023-04-25T13:35:02;31.07;;;27.67;;
61344;SDS011;47216;42.656;23.232;2023-04-25T13:37:30;7.90;;;7.10;;
61344;SDS011;47216;42.656;23.232;2023-04-25T13:39:58;7.07;;;6.40;;
61344;SDS011;47216;42.656;23.232;2023-04-25T13:42:26;3.87;;;3.47;;
61344;SDS011;47216;42.656;23.232;2023-04-25T13:44:53;2.87;;;1.90;;
61344;SDS011;47216;42.656;23.232;2023-04-25T13:47:20;2.70;;;2.13;;
61344;SDS011;47216;42.656;23.232;2023-04-25T13:49:47;2.63;;;1.70;;
61344;SDS011;47216;42.656;23.232;2023-04-25T13:52:14;2.20;;;1.23;;
61344;SDS011;47216;42.656;23.232;2023-04-25T13:54:41;3.33;;;1.43;;
61344;SDS011;47216;42.656;23.232;2023-04-25T13:57:07;4.83;;;1.23;;
61344;SDS011;47216;42.656;23.232;2023-04-25T13:59:39;2.17;;;1.00;;
61344;SDS011;47216;42.656;23.232;2023-04-25T14:02:06;1.73;;;1.20;;
61344;SDS011;47216;42.656;23.232;2023-04-25T14:04:33;1.90;;;1.03;;
61344;SDS011;47216;42.656;23.232;2023-04-25T14:07:00;2.20;;;0.80;;
61344;SDS011;47216;42.656;23.232;2023-04-25T14:09:28;1.60;;;0.87;;
61344;SDS011;47216;42.656;23.232;2023-04-25T14:11:55;1.53;;;0.90;;
61344;SDS011;47216;42.656;23.232;2023-04-25T14:14:22;0.63;;;0.63;;
61344;SDS011;47216;42.656;23.232;2023-04-25T14:16:51;0.70;;;0.70;;
61344;SDS011;47216;42.656;23.232;2023-04-25T14:19:19;0.60;;;0.60;;
61344;SDS011;47216;42.656;23.232;2023-04-25T14:21:46;1.17;;;0.90;;
61344;SDS011;47216;42.656;23.232;2023-04-25T14:24:13;0.67;;;0.63;;
61344;SDS011;47216;42.656;23.232;2023-04-25T14:26:40;0.87;;;0.80;;
61344;SDS011;47216;42.656;23.232;2023-04-25T14:29:09;1.27;;;0.80;;
61344;SDS011;47216;42.656;23.232;2023-04-25T14:31:37;0.60;;;0.60;;
61344;SDS011;47216;42.656;23.232;2023-04-25T14:34:08;1.50;;;0.60;;
61344;SDS011;47216;42.656;23.232;2023-04-25T14:36:36;2.30;;;1.00;;
61344;SDS011;47216;42.656;23.232;2023-04-25T14:39:03;2.70;;;0.80;;
61344;SDS011;47216;42.656;23.232;2023-04-25T14:41:31;1.07;;;0.90;;